sensor_id;sensor_type;location;lat;lon;timestamp;P1;durP1;ratioP1;P2;durP2;ratioP2
67712;SDS011;54503;55.784;49.138;2022-09-13T00:00:22;15.48;;;4.30;;
67712;SDS011;54503;55.784;49.138;2022-09-13T00:05:28;14.60;;;4.73;;
67712;SDS011;54503;55.784;49.138;2022-09-13T00:10:48;12.70;;;5.40;;
67712;SDS011;54503;55.784;49.138;2022-09-13T00:15:53;11.60;;;5.93;;
67712;SDS011;54503;55.784;49.138;2022-09-13T00:21:14;18.00;;;5.77;;
67712;SDS011;54503;55.784;49.138;2022-09-13T00:26:20;17.37;;;5.65;;
67712;SDS011;54503;55.784;49.138;2022-09-13T00:31:39;12.57;;;4.93;;
67712;SDS011;54503;55.784;49.138;2022-09-13T00:36:58;11.85;;;5.20;;
67712;SDS011;54503;55.784;49.138;2022-09-13T00:42:20;12.35;;;4.70;;
67712;SDS011;54503;55.784;49.138;2022-09-13T01:04:08;10.93;;;4.50;;
67712;SDS011;54503;55.784;49.138;2022-09-13T01:09:28;12.95;;;4.50;;
67712;SDS011;54503;55.784;49.138;2022-09-13T01:14:34;8.85;;;4.20;;
67712;SDS011;54503;55.784;49.138;2022-09-13T01:19:53;8.97;;;4.30;;
67712;SDS011;54503;55.784;49.138;2022-09-13T01:41:52;13.77;;;4.53;;
67712;SDS011;54503;55.784;49.138;2022-09-13T02:09:23;11.50;;;4.22;;
67712;SDS011;54503;55.784;49.138;2022-09-13T02:25:29;7.53;;;3.30;;
67712;SDS011;54503;55.784;49.138;2022-09-13T02:30:36;9.60;;;4.33;;
67712;SDS011;54503;55.784;49.138;2022-09-13T02:35:59;9.80;;;3.87;;
67712;SDS011;54503;55.784;49.138;2022-09-13T03:03:28;13.48;;;4.72;;
67712;SDS011;54503;55.784;49.138;2022-09-13T03:08:47;9.40;;;4.12;;
67712;SDS011;54503;55.784;49.138;2022-09-13T03:30:48;11.50;;;4.63;;
67712;SDS011;54503;55.784;49.138;2022-09-13T03:41:35;19.63;;;7.50;;
67712;SDS011;54503;55.784;49.138;2022-09-13T03:46:41;14.43;;;6.87;;
67712;SDS011;54503;55.784;49.138;2022-09-13T03:52:01;14.33;;;6.40;;
67712;SDS011;54503;55.784;49.138;2022-09-13T03:57:20;17.40;;;6.47;;
67712;SDS011;54503;55.784;49.138;2022-09-13T04:02:26;24.40;;;7.58;;
67712;SDS011;54503;55.784;49.138;2022-09-13T04:07:46;22.05;;;8.00;;
67712;SDS011;54503;55.784;49.138;2022-09-13T04:12:52;24.70;;;8.70;;
67712;SDS011;54503;55.784;49.138;2022-09-13T04:17:58;19.65;;;7.60;;
67712;SDS011;54503;55.784;49.138;2022-09-13T04:23:03;20.37;;;6.50;;
67712;SDS011;54503;55.784;49.138;2022-09-13T04:28:30;16.93;;;6.83;;
67712;SDS011;54503;55.784;49.138;2022-09-13T04:33:35;16.20;;;6.20;;
67712;SDS011;54503;55.784;49.138;2022-09-13T04:39:07;11.38;;;4.58;;
67712;SDS011;54503;55.784;49.138;2022-09-13T04:44:12;16.90;;;3.80;;
67712;SDS011;54503;55.784;49.138;2022-09-13T04:49:32;7.40;;;3.03;;
67712;SDS011;54503;55.784;49.138;2022-09-13T04:54:51;10.03;;;2.58;;
67712;SDS011;54503;55.784;49.138;2022-09-13T04:59:57;7.60;;;2.50;;
67712;SDS011;54503;55.784;49.138;2022-09-13T05:05:18;11.93;;;2.70;;
67712;SDS011;54503;55.784;49.138;2022-09-13T05:10:24;8.65;;;2.70;;
67712;SDS011;54503;55.784;49.138;2022-09-13T05:15:30;24.40;;;3.20;;
67712;SDS011;54503;55.784;49.138;2022-09-13T05:20:36;15.23;;;5.93;;
67712;SDS011;54503;55.784;49.138;2022-09-13T05:31:34;11.93;;;4.20;;
67712;SDS011;54503;55.784;49.138;2022-09-13T05:36:41;17.62;;;4.65;;
67712;SDS011;54503;55.784;49.138;2022-09-13T05:41:47;13.93;;;2.90;;
67712;SDS011;54503;55.784;49.138;2022-09-13T05:52:42;14.95;;;3.10;;
67712;SDS011;54503;55.784;49.138;2022-09-13T05:58:07;19.53;;;3.50;;
67712;SDS011;54503;55.784;49.138;2022-09-13T06:03:26;9.65;;;3.10;;
67712;SDS011;54503;55.784;49.138;2022-09-13T06:25:02;6.50;;;2.83;;
67712;SDS011;54503;55.784;49.138;2022-09-13T06:30:58;7.50;;;2.85;;
67712;SDS011;54503;55.784;49.138;2022-09-13T06:35:47;9.73;;;3.27;;
67712;SDS011;54503;55.784;49.138;2022-09-13T06:41:07;6.30;;;3.10;;
67712;SDS011;54503;55.784;49.138;2022-09-13T06:51:50;14.58;;;3.62;;
67712;SDS011;54503;55.784;49.138;2022-09-13T06:56:55;7.37;;;2.60;;
67712;SDS011;54503;55.784;49.138;2022-09-13T07:02:03;9.48;;;2.80;;
67712;SDS011;54503;55.784;49.138;2022-09-13T07:07:12;14.53;;;3.60;;
67712;SDS011;54503;55.784;49.138;2022-09-13T07:12:31;6.40;;;2.90;;
67712;SDS011;54503;55.784;49.138;2022-09-13T07:17:50;12.98;;;3.10;;
67712;SDS011;54503;55.784;49.138;2022-09-13T07:22:56;10.87;;;3.10;;
67712;SDS011;54503;55.784;49.138;2022-09-13T07:28:02;11.30;;;3.40;;
67712;SDS011;54503;55.784;49.138;2022-09-13T07:33:11;8.55;;;3.00;;
67712;SDS011;54503;55.784;49.138;2022-09-13T07:38:30;14.53;;;3.33;;
67712;SDS011;54503;55.784;49.138;2022-09-13T07:43:45;10.43;;;3.98;;
67712;SDS011;54503;55.784;49.138;2022-09-13T07:49:05;8.63;;;2.95;;
67712;SDS011;54503;55.784;49.138;2022-09-13T07:54:12;9.97;;;3.40;;
67712;SDS011;54503;55.784;49.138;2022-09-13T07:59:18;12.85;;;2.90;;
67712;SDS011;54503;55.784;49.138;2022-09-13T08:04:37;11.50;;;3.47;;
67712;SDS011;54503;55.784;49.138;2022-09-13T08:09:56;11.57;;;2.90;;
67712;SDS011;54503;55.784;49.138;2022-09-13T08:15:15;6.60;;;2.50;;
67712;SDS011;54503;55.784;49.138;2022-09-13T08:20:20;8.93;;;3.03;;
67712;SDS011;54503;55.784;49.138;2022-09-13T08:25:26;9.90;;;3.20;;
67712;SDS011;54503;55.784;49.138;2022-09-13T08:35:52;5.63;;;2.53;;
67712;SDS011;54503;55.784;49.138;2022-09-13T08:46:38;17.10;;;3.85;;
67712;SDS011;54503;55.784;49.138;2022-09-13T08:51:57;5.47;;;2.70;;
67712;SDS011;54503;55.784;49.138;2022-09-13T09:02:43;7.72;;;2.60;;
67712;SDS011;54503;55.784;49.138;2022-09-13T09:18:38;8.93;;;2.97;;
67712;SDS011;54503;55.784;49.138;2022-09-13T09:23:58;8.63;;;2.40;;
67712;SDS011;54503;55.784;49.138;2022-09-13T09:29:20;9.85;;;2.50;;
67712;SDS011;54503;55.784;49.138;2022-09-13T09:39:53;5.87;;;2.40;;
67712;SDS011;54503;55.784;49.138;2022-09-13T09:45:00;10.93;;;2.60;;
67712;SDS011;54503;55.784;49.138;2022-09-13T10:12:40;6.50;;;2.20;;
67712;SDS011;54503;55.784;49.138;2022-09-13T10:23:24;7.22;;;2.10;;
67712;SDS011;54503;55.784;49.138;2022-09-13T10:28:31;15.55;;;2.70;;
67712;SDS011;54503;55.784;49.138;2022-09-13T10:55:40;9.85;;;4.87;;
67712;SDS011;54503;55.784;49.138;2022-09-13T11:39:30;22.98;;;8.05;;
67712;SDS011;54503;55.784;49.138;2022-09-13T12:01:56;14.80;;;4.20;;
67712;SDS011;54503;55.784;49.138;2022-09-13T12:12:36;25.77;;;4.78;;
67712;SDS011;54503;55.784;49.138;2022-09-13T12:17:42;11.68;;;3.35;;
67712;SDS011;54503;55.784;49.138;2022-09-13T12:22:48;18.17;;;3.30;;
67712;SDS011;54503;55.784;49.138;2022-09-13T12:27:58;12.40;;;3.27;;
67712;SDS011;54503;55.784;49.138;2022-09-13T12:33:28;14.80;;;3.27;;
67712;SDS011;54503;55.784;49.138;2022-09-13T13:11:44;14.07;;;4.45;;
67712;SDS011;54503;55.784;49.138;2022-09-13T13:16:50;59.77;;;6.23;;
67712;SDS011;54503;55.784;49.138;2022-09-13T13:27:48;19.82;;;3.80;;
67712;SDS011;54503;55.784;49.138;2022-09-13T13:43:59;20.33;;;4.50;;
67712;SDS011;54503;55.784;49.138;2022-09-13T14:05:48;7.13;;;2.80;;
67712;SDS011;54503;55.784;49.138;2022-09-13T14:22:24;19.48;;;4.45;;
67712;SDS011;54503;55.784;49.138;2022-09-13T14:27:29;24.15;;;4.17;;
67712;SDS011;54503;55.784;49.138;2022-09-13T14:43:38;30.67;;;5.13;;
67712;SDS011;54503;55.784;49.138;2022-09-13T14:48:58;23.83;;;4.78;;
67712;SDS011;54503;55.784;49.138;2022-09-13T14:54:19;27.32;;;6.25;;
67712;SDS011;54503;55.784;49.138;2022-09-13T15:05:03;27.45;;;7.45;;
67712;SDS011;54503;55.784;49.138;2022-09-13T15:15:46;13.05;;;3.80;;
67712;SDS011;54503;55.784;49.138;2022-09-13T15:26:34;14.03;;;3.70;;
67712;SDS011;54503;55.784;49.138;2022-09-13T15:31:57;26.43;;;3.70;;
67712;SDS011;54503;55.784;49.138;2022-09-13T15:42:51;13.75;;;3.98;;
67712;SDS011;54503;55.784;49.138;2022-09-13T15:47:57;13.57;;;4.27;;
67712;SDS011;54503;55.784;49.138;2022-09-13T15:53:16;12.53;;;2.98;;
67712;SDS011;54503;55.784;49.138;2022-09-13T15:58:35;15.20;;;2.90;;
67712;SDS011;54503;55.784;49.138;2022-09-13T16:04:03;9.58;;;2.77;;
67712;SDS011;54503;55.784;49.138;2022-09-13T16:14:34;6.58;;;2.62;;
67712;SDS011;54503;55.784;49.138;2022-09-13T16:25:03;11.50;;;3.37;;
67712;SDS011;54503;55.784;49.138;2022-09-13T16:30:46;13.43;;;4.12;;
67712;SDS011;54503;55.784;49.138;2022-09-13T16:35:52;9.73;;;3.33;;
67712;SDS011;54503;55.784;49.138;2022-09-13T16:40:58;9.83;;;3.58;;
67712;SDS011;54503;55.784;49.138;2022-09-13T16:46:18;10.98;;;4.40;;
67712;SDS011;54503;55.784;49.138;2022-09-13T16:51:23;14.30;;;6.10;;
67712;SDS011;54503;55.784;49.138;2022-09-13T16:56:29;23.43;;;8.40;;
67712;SDS011;54503;55.784;49.138;2022-09-13T17:01:48;17.45;;;8.98;;
67712;SDS011;54503;55.784;49.138;2022-09-13T17:07:12;22.95;;;9.50;;
67712;SDS011;54503;55.784;49.138;2022-09-13T17:12:18;22.97;;;8.90;;
67712;SDS011;54503;55.784;49.138;2022-09-13T17:17:24;28.38;;;8.83;;
67712;SDS011;54503;55.784;49.138;2022-09-13T17:22:29;19.30;;;7.60;;
67712;SDS011;54503;55.784;49.138;2022-09-13T17:27:51;13.07;;;6.00;;
67712;SDS011;54503;55.784;49.138;2022-09-13T17:32:57;21.02;;;9.60;;
67712;SDS011;54503;55.784;49.138;2022-09-13T17:38:03;17.05;;;5.53;;
67712;SDS011;54503;55.784;49.138;2022-09-13T17:43:09;13.33;;;5.17;;
67712;SDS011;54503;55.784;49.138;2022-09-13T17:48:27;13.80;;;5.83;;
67712;SDS011;54503;55.784;49.138;2022-09-13T17:59:12;17.00;;;4.30;;
67712;SDS011;54503;55.784;49.138;2022-09-13T18:04:31;12.18;;;4.00;;
67712;SDS011;54503;55.784;49.138;2022-09-13T18:09:50;14.13;;;4.77;;
67712;SDS011;54503;55.784;49.138;2022-09-13T18:15:09;9.30;;;4.60;;
67712;SDS011;54503;55.784;49.138;2022-09-13T18:20:15;10.00;;;4.58;;
67712;SDS011;54503;55.784;49.138;2022-09-13T18:25:34;15.73;;;3.67;;
67712;SDS011;54503;55.784;49.138;2022-09-13T18:30:50;16.10;;;5.35;;
67712;SDS011;54503;55.784;49.138;2022-09-13T18:36:05;10.53;;;3.10;;
67712;SDS011;54503;55.784;49.138;2022-09-13T18:46:37;12.60;;;4.47;;
67712;SDS011;54503;55.784;49.138;2022-09-13T18:51:56;10.05;;;2.98;;
67712;SDS011;54503;55.784;49.138;2022-09-13T18:57:01;8.93;;;2.40;;
67712;SDS011;54503;55.784;49.138;2022-09-13T19:02:33;7.05;;;2.40;;
67712;SDS011;54503;55.784;49.138;2022-09-13T19:07:38;7.95;;;2.50;;
67712;SDS011;54503;55.784;49.138;2022-09-13T19:12:45;7.07;;;2.23;;
67712;SDS011;54503;55.784;49.138;2022-09-13T19:18:04;5.90;;;2.35;;
67712;SDS011;54503;55.784;49.138;2022-09-13T19:23:23;7.23;;;2.20;;
67712;SDS011;54503;55.784;49.138;2022-09-13T19:34:22;5.15;;;2.12;;
67712;SDS011;54503;55.784;49.138;2022-09-13T19:39:28;4.12;;;1.82;;
67712;SDS011;54503;55.784;49.138;2022-09-13T19:44:34;5.47;;;2.03;;
67712;SDS011;54503;55.784;49.138;2022-09-13T19:49:41;4.80;;;2.05;;
67712;SDS011;54503;55.784;49.138;2022-09-13T19:55:07;9.50;;;1.93;;
67712;SDS011;54503;55.784;49.138;2022-09-13T20:00:28;4.90;;;2.05;;
67712;SDS011;54503;55.784;49.138;2022-09-13T20:11:15;5.97;;;2.87;;
67712;SDS011;54503;55.784;49.138;2022-09-13T20:16:22;4.55;;;2.30;;
67712;SDS011;54503;55.784;49.138;2022-09-13T20:21:42;6.62;;;2.22;;
67712;SDS011;54503;55.784;49.138;2022-09-13T20:27:01;4.07;;;1.87;;
67712;SDS011;54503;55.784;49.138;2022-09-13T20:32:20;5.15;;;2.05;;
67712;SDS011;54503;55.784;49.138;2022-09-13T20:37:26;6.23;;;2.00;;
67712;SDS011;54503;55.784;49.138;2022-09-13T20:42:45;6.43;;;2.03;;
67712;SDS011;54503;55.784;49.138;2022-09-13T20:47:50;6.10;;;2.10;;
67712;SDS011;54503;55.784;49.138;2022-09-13T20:53:09;4.47;;;1.70;;
67712;SDS011;54503;55.784;49.138;2022-09-13T20:58:29;6.33;;;2.07;;
67712;SDS011;54503;55.784;49.138;2022-09-13T21:03:48;7.35;;;1.80;;
67712;SDS011;54503;55.784;49.138;2022-09-13T21:09:10;3.70;;;1.80;;
67712;SDS011;54503;55.784;49.138;2022-09-13T21:14:15;9.50;;;2.00;;
67712;SDS011;54503;55.784;49.138;2022-09-13T21:19:33;12.68;;;1.85;;
67712;SDS011;54503;55.784;49.138;2022-09-13T21:24:39;6.27;;;1.80;;
67712;SDS011;54503;55.784;49.138;2022-09-13T21:30:00;6.37;;;2.37;;
67712;SDS011;54503;55.784;49.138;2022-09-13T21:35:20;8.10;;;2.08;;
67712;SDS011;54503;55.784;49.138;2022-09-13T21:40:40;5.73;;;1.93;;
67712;SDS011;54503;55.784;49.138;2022-09-13T21:46:00;4.00;;;1.90;;
67712;SDS011;54503;55.784;49.138;2022-09-13T21:51:06;9.83;;;2.03;;
67712;SDS011;54503;55.784;49.138;2022-09-13T21:56:13;5.55;;;2.17;;
67712;SDS011;54503;55.784;49.138;2022-09-13T22:01:21;10.45;;;2.02;;
67712;SDS011;54503;55.784;49.138;2022-09-13T22:06:26;3.97;;;2.00;;
67712;SDS011;54503;55.784;49.138;2022-09-13T22:11:46;6.00;;;2.37;;
67712;SDS011;54503;55.784;49.138;2022-09-13T22:16:52;10.40;;;2.30;;
67712;SDS011;54503;55.784;49.138;2022-09-13T22:22:00;5.67;;;2.27;;
67712;SDS011;54503;55.784;49.138;2022-09-13T22:27:19;6.72;;;2.40;;
67712;SDS011;54503;55.784;49.138;2022-09-13T22:32:43;5.85;;;2.20;;
67712;SDS011;54503;55.784;49.138;2022-09-13T22:37:49;6.20;;;2.07;;
67712;SDS011;54503;55.784;49.138;2022-09-13T22:43:07;6.58;;;2.30;;
67712;SDS011;54503;55.784;49.138;2022-09-13T22:48:12;4.78;;;2.05;;
67712;SDS011;54503;55.784;49.138;2022-09-13T22:53:19;4.37;;;2.10;;
67712;SDS011;54503;55.784;49.138;2022-09-13T22:58:24;5.70;;;2.20;;
67712;SDS011;54503;55.784;49.138;2022-09-13T23:03:43;6.17;;;2.43;;
67712;SDS011;54503;55.784;49.138;2022-09-13T23:09:04;4.80;;;2.30;;
67712;SDS011;54503;55.784;49.138;2022-09-13T23:14:10;8.05;;;2.40;;
67712;SDS011;54503;55.784;49.138;2022-09-13T23:19:15;10.32;;;2.87;;
67712;SDS011;54503;55.784;49.138;2022-09-13T23:24:35;5.60;;;2.33;;
67712;SDS011;54503;55.784;49.138;2022-09-13T23:29:54;5.42;;;2.37;;
67712;SDS011;54503;55.784;49.138;2022-09-13T23:35:16;4.10;;;2.03;;
67712;SDS011;54503;55.784;49.138;2022-09-13T23:40:21;5.00;;;2.20;;
67712;SDS011;54503;55.784;49.138;2022-09-13T23:45:27;4.40;;;2.33;;
67712;SDS011;54503;55.784;49.138;2022-09-13T23:50:32;6.47;;;2.53;;
67712;SDS011;54503;55.784;49.138;2022-09-13T23:55:50;5.62;;;2.30;;
